createdAt,value
2018-12-22T00:02:25.586Z,8.50
2018-12-22T00:04:59.321Z,8.50
2018-12-22T00:07:28.148Z,8.60
2018-12-22T00:09:58.100Z,8.60
2018-12-22T00:14:58.736Z,8.80
2018-12-22T00:17:28.625Z,8.90
2018-12-22T00:19:59.412Z,9.00
2018-12-22T00:22:38.780Z,9.00
2018-12-22T00:25:14.529Z,9.00
2018-12-22T00:27:51.006Z,9.10
2018-12-22T00:32:52.434Z,9.10
2018-12-22T00:40:25.691Z,9.20
2018-12-22T00:42:54.556Z,9.30
2018-12-22T00:45:35.057Z,9.30
2018-12-22T00:50:33.912Z,9.20
2018-12-22T00:55:48.392Z,9.30
2018-12-22T00:58:19.284Z,9.30
2018-12-22T01:00:52.140Z,9.30
2018-12-22T01:03:21.904Z,9.30
2018-12-22T01:08:27.841Z,9.40
2018-12-22T01:10:59.884Z,9.30
2018-12-22T01:13:46.370Z,9.30
2018-12-22T01:16:16.121Z,9.30
2018-12-22T01:18:44.918Z,9.30
2018-12-22T01:21:14.732Z,9.30
2018-12-22T01:23:58.070Z,9.30
2018-12-22T01:29:02.017Z,9.20
2018-12-22T01:31:35.776Z,9.30
2018-12-22T01:34:12.087Z,9.30
2018-12-22T01:36:45.130Z,9.30
2018-12-22T01:41:46.386Z,9.40
2018-12-22T01:44:26.348Z,9.40
2018-12-22T01:46:55.162Z,9.50
2018-12-22T01:49:26.450Z,9.50
2018-12-22T01:52:00.849Z,9.50
2018-12-22T01:54:32.795Z,9.50
2018-12-22T01:57:11.265Z,9.50
2018-12-22T02:02:22.198Z,9.50
2018-12-22T02:04:52.986Z,9.50
2018-12-22T02:12:35.771Z,9.50
2018-12-22T02:15:05.842Z,9.50
2018-12-22T02:20:21.738Z,9.50
2018-12-22T02:23:08.174Z,9.60
2018-12-22T02:28:34.139Z,9.60
2018-12-22T02:31:03.014Z,9.60
2018-12-22T02:38:46.903Z,9.60
2018-12-22T02:41:41.955Z,9.50
2018-12-22T02:44:10.787Z,9.50
2018-12-22T02:46:39.733Z,9.40
2018-12-22T02:51:43.814Z,9.30
2018-12-22T02:56:51.899Z,9.30
2018-12-22T03:02:00.279Z,9.20
2018-12-22T03:04:29.055Z,9.20
2018-12-22T03:06:58.139Z,9.20
2018-12-22T03:09:37.283Z,9.20
2018-12-22T03:17:06.763Z,9.30
2018-12-22T03:22:29.808Z,9.30
2018-12-22T03:25:01.211Z,9.40
2018-12-22T03:30:01.019Z,9.40
2018-12-22T03:32:35.339Z,9.40
2018-12-22T03:35:09.145Z,9.40
2018-12-22T03:37:38.231Z,9.50
2018-12-22T03:45:17.829Z,9.40
2018-12-22T03:53:19.285Z,9.50
2018-12-22T03:55:53.605Z,9.50
2018-12-22T03:58:28.119Z,9.60
2018-12-22T04:05:59.819Z,9.60
2018-12-22T04:08:30.530Z,9.70
2018-12-22T04:13:29.130Z,9.70
2018-12-22T04:23:58.389Z,9.60
2018-12-22T04:26:48.551Z,9.60
2018-12-22T04:29:19.328Z,9.60
2018-12-22T04:31:50.745Z,9.50
2018-12-22T04:37:01.535Z,9.30
2018-12-22T04:42:00.153Z,9.20
2018-12-22T04:44:44.206Z,9.20
2018-12-22T04:47:26.914Z,9.20
2018-12-22T04:50:01.207Z,9.10
2018-12-22T04:55:36.102Z,9.10
2018-12-22T04:58:10.373Z,9.10
2018-12-22T05:00:58.270Z,9.10
2018-12-22T05:06:45.246Z,9.20
2018-12-22T05:12:24.302Z,9.00
2018-12-22T05:14:53.674Z,9.00
2018-12-22T05:25:41.913Z,8.90
2018-12-22T05:28:12.773Z,8.90
2018-12-22T05:30:48.862Z,8.80
2018-12-22T05:33:49.234Z,8.80
2018-12-22T05:36:44.027Z,8.80
2018-12-22T05:39:16.916Z,8.80
2018-12-22T05:41:48.833Z,8.80
2018-12-22T05:44:30.009Z,8.80
2018-12-22T05:49:28.540Z,8.80
2018-12-22T05:52:01.349Z,8.80
2018-12-22T05:54:40.709Z,8.80
2018-12-22T05:57:17.281Z,8.80
2018-12-22T05:59:48.057Z,8.80
2018-12-22T06:02:31.302Z,8.70
2018-12-22T06:12:59.566Z,8.70
2018-12-22T06:15:36.705Z,8.70
2018-12-22T06:18:39.709Z,8.70
2018-12-22T06:34:27.825Z,8.60
2018-12-22T06:39:43.438Z,8.60
2018-12-22T06:42:27.069Z,8.60
2018-12-22T06:45:18.081Z,8.50
2018-12-22T06:47:50.069Z,8.50
2018-12-22T06:52:59.522Z,8.50
2018-12-22T06:55:41.105Z,8.50
2018-12-22T06:58:18.037Z,8.50
2018-12-22T07:00:47.082Z,8.50
2018-12-22T07:05:47.558Z,8.50
2018-12-22T07:10:57.036Z,8.40
2018-12-22T07:13:26.826Z,8.40
2018-12-22T07:15:57.913Z,8.40
2018-12-22T07:18:26.753Z,8.30
2018-12-22T07:20:56.634Z,8.30
2018-12-22T07:23:25.446Z,8.30
2018-12-22T07:25:55.314Z,8.30
2018-12-22T07:28:24.397Z,8.30
2018-12-22T07:30:58.396Z,8.30
2018-12-22T07:33:29.701Z,8.20
2018-12-22T07:35:59.617Z,8.30
2018-12-22T07:43:43.825Z,8.30
2018-12-22T07:46:16.541Z,8.30
2018-12-22T07:48:45.482Z,8.30
2018-12-22T07:51:15.237Z,8.30
2018-12-22T07:53:48.598Z,8.40
2018-12-22T07:56:18.451Z,8.40
2018-12-22T07:58:59.653Z,8.40
2018-12-22T08:04:02.173Z,8.50
2018-12-22T08:06:41.661Z,8.50
2018-12-22T08:09:17.601Z,8.50
2018-12-22T08:19:16.809Z,8.70
2018-12-22T08:22:00.413Z,8.70
2018-12-22T08:24:42.998Z,8.70
2018-12-22T08:27:26.814Z,8.70
2018-12-22T08:32:28.536Z,8.70
2018-12-22T08:37:47.418Z,8.70
2018-12-22T08:40:18.235Z,8.70
2018-12-22T08:42:52.438Z,8.60
2018-12-22T08:45:23.219Z,8.60
2018-12-22T08:47:52.222Z,8.60
2018-12-22T08:50:21.022Z,8.60
2018-12-22T08:52:50.750Z,8.60
2018-12-22T08:55:20.547Z,8.60
2018-12-22T08:57:49.429Z,8.50
2018-12-22T09:00:33.421Z,8.50
2018-12-22T09:05:35.149Z,8.50
2018-12-22T09:10:34.702Z,8.40
2018-12-22T09:13:08.293Z,8.40
2018-12-22T09:15:43.229Z,8.50
2018-12-22T09:18:17.729Z,8.40
2018-12-22T09:20:53.521Z,8.50
2018-12-22T09:23:35.320Z,8.50
2018-12-22T09:26:26.737Z,8.60
2018-12-22T09:29:18.974Z,8.60
2018-12-22T09:43:49.965Z,8.70
2018-12-22T09:46:39.453Z,8.70
